createdAt,value
2018-03-19T00:00:03.154Z,-0.84
2018-03-19T00:01:03.138Z,-0.89
2018-03-19T00:02:03.148Z,-0.81
2018-03-19T00:03:03.063Z,-0.94
2018-03-19T00:04:03.038Z,-0.91
2018-03-19T00:05:03.009Z,-0.96
2018-03-19T00:06:02.976Z,-0.97
2018-03-19T00:07:02.949Z,-1.03
2018-03-19T00:08:02.920Z,-1.00
2018-03-19T00:09:02.903Z,-1.01
2018-03-19T00:10:02.874Z,-1.04
2018-03-19T00:11:02.842Z,-0.99
2018-03-19T00:12:02.808Z,-0.99
2018-03-19T00:13:02.793Z,-1.04
2018-03-19T00:14:02.748Z,-1.00
2018-03-19T00:15:02.737Z,-1.04
2018-03-19T00:16:02.690Z,-1.01
2018-03-19T00:17:02.660Z,-0.94
2018-03-19T00:18:02.634Z,-1.04
2018-03-19T00:19:02.605Z,-1.01
2018-03-19T00:20:02.575Z,-1.03
2018-03-19T00:21:02.548Z,-1.06
2018-03-19T00:22:02.516Z,-1.01
2018-03-19T00:23:02.487Z,-1.04
2018-03-19T00:24:02.467Z,-1.03
2018-03-19T00:25:02.440Z,-0.99
2018-03-19T00:26:02.403Z,-1.06
2018-03-19T00:27:02.373Z,-1.09
2018-03-19T00:28:02.346Z,-1.18
2018-03-19T00:29:02.313Z,-1.09
2018-03-19T00:30:02.296Z,-1.09
2018-03-19T00:31:02.261Z,-1.11
2018-03-19T00:32:02.229Z,-1.21
2018-03-19T00:33:02.201Z,-1.11
2018-03-19T00:34:02.272Z,-1.09
2018-03-19T00:35:02.144Z,-1.09
2018-03-19T00:36:02.114Z,-1.03
2018-03-19T00:37:02.085Z,-0.99
2018-03-19T00:38:02.053Z,-1.11
2018-03-19T00:39:02.024Z,-1.14
2018-03-19T00:40:01.996Z,-1.07
2018-03-19T00:41:02.000Z,-1.11
2018-03-19T00:42:01.945Z,-1.14
2018-03-19T00:43:01.907Z,-1.11
2018-03-19T00:44:01.878Z,-1.11
2018-03-19T00:45:01.852Z,-1.15
2018-03-19T00:46:01.822Z,-1.15
2018-03-19T00:47:01.791Z,-1.17
2018-03-19T00:48:01.761Z,-1.18
2018-03-19T00:49:01.742Z,-1.19
2018-03-19T00:50:01.708Z,-1.18
2018-03-19T00:51:01.682Z,-1.18
2018-03-19T00:52:01.646Z,-1.22
2018-03-19T00:53:01.615Z,-1.22
2018-03-19T00:54:01.600Z,-1.19
2018-03-19T00:55:01.564Z,-1.24
2018-03-19T00:56:01.529Z,-1.25
2018-03-19T00:57:01.512Z,-1.30
2018-03-19T00:58:01.471Z,-1.30
2018-03-19T00:59:01.449Z,-1.21
2018-03-19T01:00:01.417Z,-1.21
2018-03-19T01:01:01.387Z,-1.30
2018-03-19T01:02:01.355Z,-1.33
2018-03-19T01:03:01.342Z,-1.35
2018-03-19T01:04:01.294Z,-1.22
2018-03-19T01:05:01.264Z,-1.19
2018-03-19T01:06:01.237Z,-1.19
2018-03-19T01:07:01.217Z,-1.21
2018-03-19T01:08:01.178Z,-1.30
2018-03-19T01:09:01.149Z,-1.21
2018-03-19T01:10:01.121Z,-1.24
2018-03-19T01:11:01.096Z,-1.19
2018-03-19T01:12:01.062Z,-1.22
2018-03-19T01:13:01.031Z,-1.29
2018-03-19T01:14:01.000Z,-1.22
2018-03-19T01:15:00.970Z,-1.30
2018-03-19T01:16:00.944Z,-1.21
2018-03-19T01:17:00.916Z,-1.25
2018-03-19T01:18:00.886Z,-1.25
2018-03-19T01:19:00.858Z,-1.27
2018-03-19T01:20:00.831Z,-1.30
2018-03-19T01:21:00.795Z,-1.35
2018-03-19T01:22:00.768Z,-1.39
2018-03-19T01:23:00.745Z,-1.33
2018-03-19T01:24:00.719Z,-1.35
2018-03-19T01:25:00.765Z,-1.29
2018-03-19T01:26:00.652Z,-1.27
2018-03-19T01:27:00.621Z,-1.32
2018-03-19T01:28:00.590Z,-1.29
2018-03-19T01:29:00.565Z,-1.29
2018-03-19T01:30:00.535Z,-1.32
2018-03-19T01:31:00.512Z,-1.35
2018-03-19T01:32:00.474Z,-1.40
2018-03-19T01:33:00.444Z,-1.35
2018-03-19T01:34:00.425Z,-1.38
2018-03-19T01:35:00.391Z,-1.43
2018-03-19T01:36:00.358Z,-1.38
2018-03-19T01:37:00.327Z,-1.36
2018-03-19T01:38:00.300Z,-1.38
2018-03-19T01:39:00.269Z,-1.43
2018-03-19T01:40:00.243Z,-1.39
2018-03-19T01:41:00.209Z,-1.40
2018-03-19T01:42:00.187Z,-1.46
2018-03-19T01:43:00.151Z,-1.48
2018-03-19T01:44:00.137Z,-1.45
2018-03-19T01:45:00.098Z,-1.54
2018-03-19T01:46:00.064Z,-1.56
2018-03-19T01:47:00.033Z,-1.39
2018-03-19T01:48:00.006Z,-1.43
2018-03-19T01:48:59.975Z,-1.46
2018-03-19T01:49:59.946Z,-1.51
2018-03-19T01:50:59.914Z,-1.57
2018-03-19T01:51:59.886Z,-1.53
2018-03-19T01:52:59.868Z,-1.51
2018-03-19T01:53:59.830Z,-1.39
2018-03-19T01:54:59.808Z,-1.46
2018-03-19T01:55:59.769Z,-1.40
2018-03-19T01:56:59.735Z,-1.35
2018-03-19T01:57:59.722Z,-1.39
2018-03-19T01:58:59.678Z,-1.39
2018-03-19T01:59:59.646Z,-1.46
2018-03-19T02:00:59.707Z,-1.46
2018-03-19T02:01:59.591Z,-1.45
2018-03-19T02:02:59.562Z,-1.42
2018-03-19T02:03:59.575Z,-1.51
2018-03-19T02:04:59.503Z,-1.46
2018-03-19T02:05:59.473Z,-1.45
2018-03-19T02:06:59.444Z,-1.51
2018-03-19T02:07:59.412Z,-1.54
2018-03-19T02:08:59.382Z,-1.53
2018-03-19T02:09:59.373Z,-1.56
2018-03-19T02:10:59.324Z,-1.51
2018-03-19T02:11:59.294Z,-1.57
2018-03-19T02:12:59.277Z,-1.57
2018-03-19T02:13:59.247Z,-1.50
2018-03-19T02:14:59.208Z,-1.53
2018-03-19T02:15:59.179Z,-1.58
2018-03-19T02:16:59.204Z,-1.51
2018-03-19T02:17:59.128Z,-1.56
2018-03-19T02:18:59.112Z,-1.57
2018-03-19T02:19:59.088Z,-1.63
2018-03-19T02:20:59.030Z,-1.54
2018-03-19T02:21:59.001Z,-1.54
2018-03-19T02:22:58.982Z,-1.64
2018-03-19T02:23:58.942Z,-1.60
2018-03-19T02:24:58.922Z,-1.64
2018-03-19T02:25:58.882Z,-1.68
2018-03-19T02:26:58.866Z,-1.60
2018-03-19T02:27:58.828Z,-1.64
2018-03-19T02:28:58.797Z,-1.61
2018-03-19T02:29:58.773Z,-1.69
2018-03-19T02:30:58.738Z,-1.58
2018-03-19T02:31:58.708Z,-1.74
2018-03-19T02:32:58.740Z,-1.68
2018-03-19T02:33:58.652Z,-1.78
2018-03-19T02:34:58.625Z,-1.78
2018-03-19T02:35:58.599Z,-1.84
2018-03-19T02:36:58.577Z,-1.79
2018-03-19T02:37:58.543Z,-1.76
2018-03-19T02:38:58.501Z,-1.74
2018-03-19T02:39:58.476Z,-1.81
2018-03-19T02:40:58.457Z,-1.84
2018-03-19T02:41:58.416Z,-1.90
2018-03-19T02:42:58.385Z,-1.94
2018-03-19T02:43:58.359Z,-1.92
2018-03-19T02:44:58.337Z,-1.86
2018-03-19T02:45:58.302Z,-1.90
2018-03-19T02:46:58.272Z,-1.94
2018-03-19T02:47:58.246Z,-1.96
2018-03-19T02:48:58.216Z,-1.90
2018-03-19T02:49:58.188Z,-1.89
2018-03-19T02:50:58.150Z,-1.87
2018-03-19T02:51:58.257Z,-1.93
2018-03-19T02:52:58.094Z,-1.96
2018-03-19T02:53:58.065Z,-1.92
2018-03-19T02:54:58.043Z,-1.97
2018-03-19T02:55:58.004Z,-1.84
2018-03-19T02:56:57.982Z,-1.87
2018-03-19T02:57:57.950Z,-1.82
2018-03-19T02:58:57.915Z,-1.82
2018-03-19T02:59:57.885Z,-1.79
2018-03-19T03:00:57.861Z,-1.84
2018-03-19T03:01:57.829Z,-1.89
2018-03-19T03:02:57.798Z,-1.86
2018-03-19T03:03:57.767Z,-1.93
2018-03-19T03:04:57.741Z,-1.94
2018-03-19T03:05:57.714Z,-1.93
2018-03-19T03:06:57.683Z,-1.94
2018-03-19T03:07:57.652Z,-2.00
2018-03-19T03:08:57.624Z,-1.92
2018-03-19T03:09:57.595Z,-1.94
2018-03-19T03:10:57.565Z,-1.97
2018-03-19T03:11:57.534Z,-1.97
2018-03-19T03:12:57.515Z,-1.97
2018-03-19T03:13:57.562Z,-2.05
2018-03-19T03:14:57.448Z,-2.04
2018-03-19T03:15:57.422Z,-2.05
2018-03-19T03:16:57.443Z,-2.04
2018-03-19T03:17:57.366Z,-2.02
2018-03-19T03:18:57.332Z,-2.07
2018-03-19T03:19:57.301Z,-2.07
2018-03-19T03:20:57.272Z,-2.07
2018-03-19T03:21:57.264Z,-1.97
2018-03-19T03:22:57.215Z,-1.99
2018-03-19T03:23:57.183Z,-2.17
2018-03-19T03:24:57.256Z,-2.17
2018-03-19T03:25:57.126Z,-2.22
2018-03-19T03:26:57.095Z,-2.22
2018-03-19T03:27:57.095Z,-2.25
2018-03-19T03:28:57.040Z,-2.23
2018-03-19T03:29:57.010Z,-2.13
2018-03-19T03:30:56.982Z,-2.11
2018-03-19T03:31:56.958Z,-2.23
2018-03-19T03:32:56.924Z,-2.32
2018-03-19T03:33:56.890Z,-2.23
2018-03-19T03:34:56.862Z,-2.22
2018-03-19T03:35:56.844Z,-2.23
2018-03-19T03:36:56.801Z,-2.23
2018-03-19T03:37:56.774Z,-2.26
2018-03-19T03:38:56.744Z,-2.26
2018-03-19T03:39:56.713Z,-2.37
2018-03-19T03:40:56.684Z,-2.32
2018-03-19T03:41:56.657Z,-2.44
2018-03-19T03:42:56.627Z,-2.34
2018-03-19T03:43:56.596Z,-2.32
2018-03-19T03:44:56.567Z,-2.48
2018-03-19T03:45:56.552Z,-2.33
2018-03-19T03:46:56.609Z,-2.32
2018-03-19T03:47:56.479Z,-2.37
2018-03-19T03:48:56.447Z,-2.36
2018-03-19T03:49:56.431Z,-2.39
2018-03-19T03:50:56.399Z,-2.47
2018-03-19T03:51:56.360Z,-2.47
2018-03-19T03:52:56.330Z,-2.47
2018-03-19T03:53:56.302Z,-2.40
2018-03-19T03:54:56.269Z,-2.37
2018-03-19T03:55:56.240Z,-2.37
2018-03-19T03:56:56.317Z,-2.39
2018-03-19T03:57:56.187Z,-2.36
2018-03-19T03:58:56.150Z,-2.32
2018-03-19T03:59:56.128Z,-2.37
2018-03-19T04:00:56.094Z,-2.26
2018-03-19T04:01:56.072Z,-2.48
2018-03-19T04:02:56.036Z,-2.48
2018-03-19T04:03:56.006Z,-2.47
2018-03-19T04:04:55.980Z,-2.50
2018-03-19T04:05:55.945Z,-2.54
2018-03-19T04:06:55.934Z,-2.58
2018-03-19T04:07:55.889Z,-2.52
2018-03-19T04:08:55.874Z,-2.54
2018-03-19T04:09:55.833Z,-2.57
2018-03-19T04:10:55.797Z,-2.57
2018-03-19T04:11:55.784Z,-2.50
2018-03-19T04:12:55.740Z,-2.54
2018-03-19T04:13:55.709Z,-2.55
2018-03-19T04:14:55.712Z,-2.57
2018-03-19T04:15:55.649Z,-2.57
2018-03-19T04:16:55.618Z,-2.52
2018-03-19T04:17:55.593Z,-2.51
2018-03-19T04:18:55.558Z,-2.54
2018-03-19T04:19:55.527Z,-2.48
2018-03-19T04:20:55.499Z,-2.55
2018-03-19T04:21:55.473Z,-2.57
2018-03-19T04:22:55.453Z,-2.62
2018-03-19T04:23:55.410Z,-2.55
2018-03-19T04:24:55.386Z,-2.58
2018-03-19T04:25:55.352Z,-2.51
2018-03-19T04:26:55.322Z,-2.61
2018-03-19T04:27:55.299Z,-2.57
2018-03-19T04:28:55.272Z,-2.65
2018-03-19T04:29:55.233Z,-2.55
2018-03-19T04:30:55.203Z,-2.54
2018-03-19T04:31:55.173Z,-2.54
2018-03-19T04:32:55.144Z,-2.51
2018-03-19T04:33:55.113Z,-2.58
2018-03-19T04:34:55.084Z,-2.62
2018-03-19T04:35:55.055Z,-2.54
2018-03-19T04:36:55.030Z,-2.55
2018-03-19T04:37:55.010Z,-2.57
2018-03-19T04:38:54.965Z,-2.65
2018-03-19T04:39:54.931Z,-2.61
2018-03-19T04:40:54.904Z,-2.63
2018-03-19T04:41:54.875Z,-2.69
2018-03-19T04:42:54.842Z,-2.68
2018-03-19T04:43:54.812Z,-2.54
2018-03-19T04:44:54.889Z,-2.57
2018-03-19T04:45:54.753Z,-2.62
2018-03-19T04:46:54.727Z,-2.61
2018-03-19T04:47:54.695Z,-2.61
2018-03-19T04:48:54.664Z,-2.63
2018-03-19T04:49:54.640Z,-2.55
2018-03-19T04:50:54.603Z,-2.57
2018-03-19T04:51:54.578Z,-2.63
2018-03-19T04:52:54.548Z,-2.70
2018-03-19T04:53:54.517Z,-2.68
2018-03-19T04:54:54.483Z,-2.66
2018-03-19T04:55:54.459Z,-2.65
2018-03-19T04:56:54.449Z,-2.68
2018-03-19T04:57:54.403Z,-2.66
2018-03-19T04:58:54.368Z,-2.69
2018-03-19T04:59:54.388Z,-2.68
2018-03-19T05:00:54.308Z,-2.70
2018-03-19T05:01:54.276Z,-2.78
2018-03-19T05:02:54.248Z,-2.69
2018-03-19T05:03:54.217Z,-2.69
2018-03-19T05:04:54.188Z,-2.80
2018-03-19T05:05:54.159Z,-2.72
2018-03-19T05:06:54.136Z,-2.80
2018-03-19T05:07:54.099Z,-2.70
2018-03-19T05:08:54.070Z,-2.80
2018-03-19T05:09:54.046Z,-2.89
2018-03-19T05:10:54.009Z,-2.87
2018-03-19T05:11:53.983Z,-2.81
2018-03-19T05:12:53.947Z,-2.93
2018-03-19T05:13:53.931Z,-2.89
2018-03-19T05:14:53.890Z,-2.87
2018-03-19T05:15:53.858Z,-2.84
2018-03-19T05:16:53.829Z,-2.84
2018-03-19T05:17:53.804Z,-2.91
2018-03-19T05:18:53.768Z,-2.96
2018-03-19T05:19:53.741Z,-2.98
2018-03-19T05:20:53.711Z,-2.96
2018-03-19T05:21:53.681Z,-2.89
2018-03-19T05:22:53.650Z,-2.89
2018-03-19T05:23:53.621Z,-2.89
2018-03-19T05:24:53.588Z,-2.91
2018-03-19T05:25:53.568Z,-3.02
2018-03-19T05:26:53.532Z,-2.96
2018-03-19T05:27:53.499Z,-2.87
2018-03-19T05:28:53.468Z,-2.93
2018-03-19T05:29:53.569Z,-2.90
2018-03-19T05:30:53.420Z,-2.87
2018-03-19T05:31:53.383Z,-2.93
2018-03-19T05:32:53.428Z,-2.89
2018-03-19T05:33:53.323Z,-2.70
2018-03-19T05:34:53.289Z,-2.72
2018-03-19T05:35:53.292Z,-2.81
2018-03-19T05:36:53.228Z,-2.81
2018-03-19T05:37:53.202Z,-2.78
2018-03-19T05:38:53.167Z,-2.96
2018-03-19T05:39:53.140Z,-2.89
2018-03-19T05:40:53.108Z,-2.91
2018-03-19T05:41:53.079Z,-2.89
2018-03-19T05:42:53.155Z,-2.94
2018-03-19T05:43:53.017Z,-2.94
2018-03-19T05:44:52.992Z,-2.87
2018-03-19T05:45:52.980Z,-2.93
2018-03-19T05:46:52.933Z,-2.90
2018-03-19T05:47:52.923Z,-2.91
2018-03-19T05:48:52.876Z,-2.87
2018-03-19T05:49:52.842Z,-2.89
2018-03-19T05:50:52.808Z,-2.94
2018-03-19T05:51:52.790Z,-2.90
2018-03-19T05:52:52.752Z,-2.90
2018-03-19T05:53:52.720Z,-2.89
2018-03-19T05:54:52.690Z,-2.91
2018-03-19T05:55:52.659Z,-2.89
2018-03-19T05:56:52.640Z,-2.91
2018-03-19T05:57:52.602Z,-2.94
2018-03-19T05:58:52.567Z,-2.93
2018-03-19T05:59:52.540Z,-2.93
2018-03-19T06:00:52.515Z,-2.86
2018-03-19T06:01:52.481Z,-2.90
2018-03-19T06:02:52.451Z,-2.69
2018-03-19T06:03:52.419Z,-2.76
2018-03-19T06:04:52.390Z,-2.75
2018-03-19T06:05:52.359Z,-2.75
2018-03-19T06:06:52.337Z,-2.70
2018-03-19T06:07:52.297Z,-2.63
2018-03-19T06:08:52.269Z,-2.66
2018-03-19T06:09:52.240Z,-2.72
2018-03-19T06:10:52.211Z,-2.65
2018-03-19T06:11:52.178Z,-2.70
2018-03-19T06:12:52.152Z,-2.68
2018-03-19T06:13:52.131Z,-2.66
2018-03-19T06:14:52.127Z,-2.68
2018-03-19T06:15:52.058Z,-2.75
2018-03-19T06:16:52.029Z,-2.69
2018-03-19T06:17:52.009Z,-2.69
2018-03-19T06:18:51.976Z,-2.69
2018-03-19T06:19:51.942Z,-2.65
2018-03-19T06:20:51.914Z,-2.57
2018-03-19T06:21:51.883Z,-2.69
2018-03-19T06:22:51.849Z,-2.72
2018-03-19T06:23:51.819Z,-2.68
2018-03-19T06:24:51.794Z,-2.63
2018-03-19T06:25:51.760Z,-2.58
2018-03-19T06:26:51.733Z,-2.48
2018-03-19T06:27:51.708Z,-2.54
2018-03-19T06:28:51.670Z,-2.58
2018-03-19T06:29:51.644Z,-2.54
2018-03-19T06:30:51.616Z,-2.58
2018-03-19T06:31:51.579Z,-2.55
2018-03-19T06:32:51.550Z,-2.54
2018-03-19T06:33:51.520Z,-2.55
2018-03-19T06:34:51.489Z,-2.48
2018-03-19T06:35:51.460Z,-2.51
2018-03-19T06:36:51.514Z,-2.52
2018-03-19T06:37:51.398Z,-2.51
2018-03-19T06:38:51.421Z,-2.62
2018-03-19T06:39:51.371Z,-2.47
2018-03-19T06:40:51.321Z,-2.58
2018-03-19T06:41:51.281Z,-2.48
2018-03-19T06:42:51.256Z,-2.34
2018-03-19T06:43:51.220Z,-2.34
2018-03-19T06:44:51.190Z,-2.28
2018-03-19T06:45:51.160Z,-2.34
2018-03-19T06:46:51.131Z,-2.28
2018-03-19T06:47:51.100Z,-2.28
2018-03-19T06:48:51.069Z,-2.23
2018-03-19T06:49:51.068Z,-2.17
2018-03-19T06:50:51.009Z,-2.13
2018-03-19T06:51:50.980Z,-2.13
2018-03-19T06:52:50.949Z,-2.07
2018-03-19T06:53:50.923Z,-2.23
2018-03-19T06:54:50.887Z,-2.15
2018-03-19T06:55:50.862Z,-2.14
2018-03-19T06:56:50.830Z,-2.26
2018-03-19T06:57:50.803Z,-2.26
2018-03-19T06:58:50.775Z,-2.13
2018-03-19T06:59:50.744Z,-2.04
2018-03-19T07:00:50.811Z,-1.97
2018-03-19T07:01:50.687Z,-1.94
2018-03-19T07:02:50.652Z,-2.15
2018-03-19T07:03:50.621Z,-2.32
2018-03-19T07:04:50.630Z,-2.37
2018-03-19T07:05:50.563Z,-2.23
2018-03-19T07:06:50.547Z,-2.34
2018-03-19T07:07:50.503Z,-2.22
2018-03-19T07:08:50.472Z,-2.08
2018-03-19T07:09:50.443Z,-1.90
2018-03-19T07:10:50.412Z,-1.93
2018-03-19T07:11:50.383Z,-1.93
2018-03-19T07:12:50.356Z,-1.93
2018-03-19T07:13:50.327Z,-1.89
2018-03-19T07:14:50.293Z,-1.94
2018-03-19T07:15:50.339Z,-1.87
2018-03-19T07:16:50.236Z,-1.96
2018-03-19T07:17:50.207Z,-1.87
2018-03-19T07:18:50.184Z,-1.86
2018-03-19T07:19:50.153Z,-1.84
2018-03-19T07:20:50.118Z,-1.89
2018-03-19T07:21:50.088Z,-1.86
2018-03-19T07:22:50.056Z,-1.82
2018-03-19T07:23:50.028Z,-1.81
2018-03-19T07:24:49.997Z,-1.69
2018-03-19T07:25:49.966Z,-1.72
2018-03-19T07:26:49.951Z,-1.63
2018-03-19T07:27:49.905Z,-1.89
2018-03-19T07:28:49.877Z,-1.82
2018-03-19T07:29:49.855Z,-1.79
2018-03-19T07:30:49.819Z,-1.69
2018-03-19T07:31:49.791Z,-1.68
2018-03-19T07:32:49.758Z,-1.79
2018-03-19T07:33:49.739Z,-1.86
2018-03-19T07:34:49.698Z,-1.72
2018-03-19T07:35:49.668Z,-1.60
2018-03-19T07:36:49.639Z,-1.51
2018-03-19T07:37:49.616Z,-1.60
2018-03-19T07:38:49.583Z,-1.42
2018-03-19T07:39:49.549Z,-1.51
2018-03-19T07:40:49.520Z,-1.50
2018-03-19T07:41:49.491Z,-1.40
2018-03-19T07:42:49.460Z,-1.30
2018-03-19T07:43:49.513Z,-1.35
2018-03-19T07:44:49.401Z,-1.27
2018-03-19T07:45:49.372Z,-1.29
2018-03-19T07:46:49.478Z,-1.30
2018-03-19T07:47:49.321Z,-1.30
2018-03-19T07:48:49.287Z,-1.32
2018-03-19T07:49:49.264Z,-1.30
2018-03-19T07:50:49.236Z,-1.38
2018-03-19T07:51:49.196Z,-1.29
2018-03-19T07:52:49.176Z,-1.19
2018-03-19T07:53:49.143Z,-1.30
2018-03-19T07:54:49.109Z,-1.27
2018-03-19T07:55:49.084Z,-1.12
2018-03-19T07:56:49.057Z,-1.12
2018-03-19T07:57:49.021Z,-1.01
2018-03-19T07:58:48.996Z,-0.93
2018-03-19T07:59:48.983Z,-0.94
2018-03-19T08:00:48.936Z,-1.00
2018-03-19T08:01:48.910Z,-0.96
2018-03-19T08:02:48.971Z,-0.78
2018-03-19T08:03:48.848Z,-0.77
2018-03-19T08:04:48.831Z,-0.72
2018-03-19T08:05:48.836Z,-0.60
2018-03-19T08:06:48.757Z,-0.69
2018-03-19T08:07:48.732Z,-0.57
2018-03-19T08:08:48.699Z,-0.59
2018-03-19T08:09:48.677Z,-0.57
2018-03-19T08:10:48.654Z,-0.48
2018-03-19T08:11:48.615Z,-0.41
2018-03-19T08:12:48.587Z,-0.18
2018-03-19T08:13:48.564Z,0.09
2018-03-19T08:14:48.527Z,0.58
2018-03-19T08:15:48.498Z,0.94
2018-03-19T08:16:48.469Z,1.18
2018-03-19T08:17:48.448Z,1.48
2018-03-19T08:18:48.475Z,1.58
2018-03-19T08:19:48.385Z,1.75
2018-03-19T08:20:48.358Z,1.82
2018-03-19T08:21:48.333Z,2.12
2018-03-19T08:22:48.303Z,2.46
2018-03-19T08:23:48.278Z,2.68
2018-03-19T08:24:48.253Z,2.80
2018-03-19T08:25:48.230Z,2.55
2018-03-19T08:26:48.197Z,2.83
2018-03-19T08:27:48.173Z,3.03
2018-03-19T08:28:48.152Z,2.50
2018-03-19T08:29:48.121Z,1.79
2018-03-19T08:30:48.094Z,1.82
2018-03-19T08:31:48.073Z,2.36
2018-03-19T08:32:48.050Z,2.62
2018-03-19T08:33:48.023Z,2.88
2018-03-19T08:34:47.999Z,3.05
2018-03-19T08:35:47.979Z,3.30
2018-03-19T08:36:47.957Z,3.48
2018-03-19T08:37:47.925Z,3.68
2018-03-19T08:38:47.902Z,3.86
2018-03-19T08:39:47.876Z,3.76
2018-03-19T08:40:47.852Z,2.98
2018-03-19T08:41:47.869Z,3.46
2018-03-19T08:42:47.813Z,3.77
2018-03-19T08:43:47.787Z,4.00
2018-03-19T08:44:47.765Z,3.61
2018-03-19T08:45:47.750Z,4.20
2018-03-19T08:46:47.725Z,4.60
2018-03-19T08:47:47.761Z,5.04
2018-03-19T08:48:47.760Z,5.46
2018-03-19T08:49:47.658Z,5.18
2018-03-19T08:50:47.638Z,5.43
2018-03-19T08:51:47.619Z,5.16
2018-03-19T08:52:47.599Z,5.05
2018-03-19T08:53:47.579Z,4.66
2018-03-19T08:54:47.560Z,4.92
2018-03-19T08:55:47.542Z,3.86
2018-03-19T08:56:47.526Z,3.81
2018-03-19T08:57:47.500Z,3.76
2018-03-19T08:58:47.483Z,4.28
2018-03-19T08:59:47.466Z,4.50
2018-03-19T09:00:47.451Z,5.15
2018-03-19T09:01:47.427Z,5.26
2018-03-19T09:02:47.413Z,5.47
2018-03-19T09:03:47.390Z,5.40
2018-03-19T09:04:47.377Z,5.91
2018-03-19T09:05:47.356Z,5.77
2018-03-19T09:06:47.337Z,6.32
2018-03-19T09:07:47.320Z,5.47
2018-03-19T09:08:47.301Z,5.36
2018-03-19T09:09:47.308Z,6.07
2018-03-19T09:10:47.270Z,5.37
2018-03-19T09:11:47.250Z,4.95
2018-03-19T09:12:47.244Z,4.27
2018-03-19T09:13:47.283Z,3.99
2018-03-19T09:14:47.206Z,4.48
2018-03-19T09:15:47.186Z,4.78
2018-03-19T09:16:47.201Z,4.28
2018-03-19T09:17:47.157Z,3.84
2018-03-19T09:18:47.138Z,3.46
2018-03-19T09:19:47.140Z,3.74
2018-03-19T09:20:47.276Z,4.52
2018-03-19T09:21:47.090Z,5.01
2018-03-19T09:22:47.076Z,4.57
2018-03-19T09:23:47.056Z,5.01
2018-03-19T09:24:47.046Z,3.66
2018-03-19T09:25:47.036Z,3.18
2018-03-19T09:26:47.013Z,3.64
2018-03-19T09:27:47.012Z,4.20
2018-03-19T09:28:46.978Z,4.90
2018-03-19T09:29:46.964Z,5.36
2018-03-19T09:30:46.954Z,5.73
2018-03-19T09:31:46.988Z,6.09
2018-03-19T09:32:46.915Z,5.72
2018-03-19T09:33:46.916Z,6.02
2018-03-19T09:34:46.887Z,6.60
2018-03-19T09:35:46.869Z,6.77
2018-03-19T09:36:46.856Z,6.26
2018-03-19T09:37:46.842Z,6.09
2018-03-19T09:38:46.837Z,6.39
2018-03-19T09:39:46.823Z,5.26
2018-03-19T09:40:46.869Z,5.87
2018-03-19T09:41:46.782Z,5.02
2018-03-19T09:42:46.766Z,4.25
2018-03-19T09:43:46.844Z,5.33
2018-03-19T09:44:46.744Z,6.29
2018-03-19T09:45:46.733Z,7.14
2018-03-19T09:46:46.712Z,6.97
2018-03-19T09:47:46.696Z,6.71
2018-03-19T09:48:46.685Z,6.71
2018-03-19T09:49:46.668Z,6.52
2018-03-19T09:50:46.659Z,6.96
2018-03-19T09:51:46.642Z,5.97
2018-03-19T09:52:46.626Z,5.41
2018-03-19T09:53:46.664Z,5.44
2018-03-19T09:54:46.600Z,6.44
2018-03-19T09:55:46.584Z,6.87
2018-03-19T09:56:46.573Z,7.64
2018-03-19T09:57:46.557Z,8.35
2018-03-19T09:58:46.545Z,7.64
2018-03-19T09:59:46.535Z,7.90
2018-03-19T10:00:46.540Z,8.05
2018-03-19T10:01:46.505Z,7.99
2018-03-19T10:02:46.496Z,7.98
2018-03-19T10:03:46.524Z,7.93
2018-03-19T10:04:46.464Z,7.43
2018-03-19T10:05:46.460Z,7.62
2018-03-19T10:06:46.437Z,7.50
2018-03-19T10:07:46.429Z,7.64
2018-03-19T10:08:46.409Z,7.64
2018-03-19T10:09:46.402Z,7.93
2018-03-19T10:10:46.384Z,7.83
2018-03-19T10:11:46.394Z,7.32
2018-03-19T10:12:46.356Z,7.44
2018-03-19T10:13:46.349Z,7.43
2018-03-19T10:14:46.336Z,7.66
2018-03-19T10:15:46.317Z,7.74
2018-03-19T10:16:46.334Z,7.62
2018-03-19T10:17:46.294Z,7.26
2018-03-19T10:18:46.278Z,7.15
2018-03-19T10:19:46.278Z,6.28
2018-03-19T10:20:46.256Z,6.10
2018-03-19T10:21:46.240Z,5.74
2018-03-19T10:22:46.248Z,6.39
2018-03-19T10:23:46.214Z,6.65
2018-03-19T10:24:46.202Z,6.95
2018-03-19T10:25:46.199Z,7.05
2018-03-19T10:26:46.173Z,6.65
2018-03-19T10:27:46.160Z,7.04
2018-03-19T10:28:46.157Z,7.01
2018-03-19T10:29:46.131Z,6.60
2018-03-19T10:30:46.117Z,5.72
2018-03-19T10:31:46.108Z,6.29
2018-03-19T10:32:46.101Z,7.03
2018-03-19T10:33:46.076Z,7.51
2018-03-19T10:34:46.079Z,7.87
2018-03-19T10:35:46.049Z,8.42
2018-03-19T10:36:46.045Z,7.93
2018-03-19T10:37:46.025Z,7.84
2018-03-19T10:38:46.009Z,7.72
2018-03-19T10:39:46.108Z,7.67
2018-03-19T10:40:45.980Z,6.80
2018-03-19T10:41:45.972Z,7.05
2018-03-19T10:42:45.972Z,7.15
2018-03-19T10:43:45.941Z,7.13
2018-03-19T10:44:45.927Z,7.62
2018-03-19T10:45:45.930Z,7.67
2018-03-19T10:46:45.910Z,7.72
2018-03-19T10:47:45.888Z,8.01
2018-03-19T10:48:45.894Z,8.20
2018-03-19T10:49:45.884Z,7.78
2018-03-19T10:50:45.847Z,7.01
2018-03-19T10:51:45.844Z,7.44
2018-03-19T10:52:45.863Z,7.53
2018-03-19T10:53:45.810Z,7.40
2018-03-19T10:54:45.794Z,7.59
2018-03-19T10:55:45.785Z,7.77
2018-03-19T10:56:45.769Z,7.74
2018-03-19T10:57:45.757Z,7.21
2018-03-19T10:58:45.743Z,6.65
2018-03-19T10:59:45.729Z,6.80
2018-03-19T11:00:45.716Z,5.54
2018-03-19T11:01:45.703Z,6.56
2018-03-19T11:02:45.693Z,6.44
2018-03-19T11:03:45.675Z,6.50
2018-03-19T11:04:45.665Z,7.04
2018-03-19T11:05:45.716Z,7.58
2018-03-19T11:06:45.637Z,8.01
2018-03-19T11:07:45.625Z,8.44
2018-03-19T11:08:45.613Z,7.83
2018-03-19T11:09:45.598Z,7.91
2018-03-19T11:10:45.582Z,7.51
2018-03-19T11:11:45.585Z,7.29
2018-03-19T11:12:45.556Z,7.10
2018-03-19T11:13:45.544Z,6.92
2018-03-19T11:14:45.540Z,7.36
2018-03-19T11:15:45.521Z,7.48
2018-03-19T11:16:45.515Z,7.56
2018-03-19T11:17:45.492Z,6.97
2018-03-19T11:18:45.489Z,6.34
2018-03-19T11:19:45.468Z,6.49
2018-03-19T11:20:45.451Z,6.83
2018-03-19T11:21:45.443Z,6.47
2018-03-19T11:22:45.426Z,6.65
2018-03-19T11:23:45.433Z,7.18
2018-03-19T11:24:45.402Z,7.25
2018-03-19T11:25:45.387Z,7.61
2018-03-19T11:26:45.372Z,7.46
2018-03-19T11:27:45.355Z,7.28
2018-03-19T11:28:45.343Z,6.75
2018-03-19T11:29:45.338Z,7.13
2018-03-19T11:30:45.320Z,7.10
2018-03-19T11:31:45.304Z,6.05
2018-03-19T11:32:45.289Z,6.54
2018-03-19T11:33:45.604Z,6.96
2018-03-19T11:34:45.261Z,6.96
2018-03-19T11:35:45.249Z,6.65
2018-03-19T11:36:45.255Z,7.44
2018-03-19T11:37:45.227Z,7.22
2018-03-19T11:38:45.216Z,7.33
2018-03-19T11:39:45.201Z,6.96
2018-03-19T11:40:45.189Z,7.31
2018-03-19T11:41:45.171Z,7.48
2018-03-19T11:42:45.164Z,6.86
2018-03-19T11:43:45.142Z,6.34
2018-03-19T11:44:45.128Z,6.87
2018-03-19T11:45:45.118Z,7.53
2018-03-19T11:46:45.212Z,7.55
2018-03-19T11:47:45.090Z,7.25
2018-03-19T11:48:45.078Z,7.64
2018-03-19T11:49:45.100Z,7.08
2018-03-19T11:50:45.042Z,6.53
2018-03-19T11:51:45.042Z,6.39
2018-03-19T11:52:45.012Z,6.67
2018-03-19T11:53:45.004Z,6.34
2018-03-19T11:54:44.982Z,6.15
2018-03-19T11:55:44.971Z,6.25
2018-03-19T11:56:44.965Z,5.92
2018-03-19T11:57:44.941Z,6.05
2018-03-19T11:58:44.926Z,6.15
2018-03-19T11:59:44.906Z,6.54
2018-03-19T12:00:44.892Z,6.35
2018-03-19T12:01:44.881Z,6.49
2018-03-19T12:02:45.220Z,6.07
2018-03-19T12:03:44.851Z,6.25
2018-03-19T12:04:44.827Z,6.28
2018-03-19T12:05:44.823Z,6.72
2018-03-19T12:06:44.796Z,5.16
2018-03-19T12:07:44.778Z,5.70
2018-03-19T12:08:44.764Z,5.25
2018-03-19T12:09:44.747Z,4.94
2018-03-19T12:10:44.728Z,5.05
2018-03-19T12:11:44.707Z,4.52
2018-03-19T12:12:44.690Z,4.84
2018-03-19T12:13:44.676Z,5.31
2018-03-19T12:14:44.667Z,5.46
2018-03-19T12:15:44.641Z,5.94
2018-03-19T12:16:44.614Z,6.01
2018-03-19T12:17:44.594Z,6.15
2018-03-19T12:18:44.590Z,6.38
2018-03-19T12:19:44.553Z,6.05
2018-03-19T12:20:44.537Z,5.36
2018-03-19T12:21:44.515Z,5.28
2018-03-19T12:22:44.498Z,5.62
2018-03-19T12:23:44.477Z,5.87
2018-03-19T12:24:44.480Z,5.80
2018-03-19T12:25:44.437Z,5.77
2018-03-19T12:26:44.417Z,5.73
2018-03-19T12:27:44.405Z,5.40
2018-03-19T12:28:44.375Z,5.15
2018-03-19T12:29:44.347Z,5.02
2018-03-19T12:30:44.328Z,4.34
2018-03-19T12:31:44.315Z,4.10
2018-03-19T12:32:44.293Z,4.06
2018-03-19T12:33:44.271Z,4.06
2018-03-19T12:34:44.246Z,4.00
2018-03-19T12:35:44.217Z,4.04
2018-03-19T12:36:44.194Z,4.25
2018-03-19T12:37:44.178Z,4.30
2018-03-19T12:38:44.155Z,4.20
2018-03-19T12:39:44.135Z,4.38
2018-03-19T12:40:44.113Z,4.63
2018-03-19T12:41:44.087Z,4.45
2018-03-19T12:42:44.062Z,4.63
2018-03-19T12:43:44.036Z,4.97
2018-03-19T12:44:44.015Z,4.70
2018-03-19T12:45:43.989Z,4.53
2018-03-19T12:46:43.978Z,4.58
2018-03-19T12:47:43.943Z,4.64
2018-03-19T12:48:43.934Z,4.53
2018-03-19T12:49:43.909Z,4.50
2018-03-19T12:50:43.874Z,4.32
2018-03-19T12:51:44.021Z,4.48
2018-03-19T12:52:43.829Z,4.84
2018-03-19T12:53:43.811Z,4.71
2018-03-19T12:54:43.815Z,4.84
2018-03-19T12:55:43.777Z,4.48
2018-03-19T12:56:43.734Z,4.24
2018-03-19T12:57:43.723Z,3.99
2018-03-19T12:58:43.689Z,3.95
2018-03-19T12:59:43.664Z,3.92
2018-03-19T13:00:43.644Z,4.21
2018-03-19T13:01:43.619Z,3.91